createdAt,value
2023-03-18T00:02:16.750Z,7.80
2023-03-18T00:05:04.352Z,7.70
2023-03-18T00:07:51.660Z,7.70
2023-03-18T00:10:40.758Z,7.30
2023-03-18T00:13:28.530Z,7.00
2023-03-18T00:16:17.457Z,6.90
2023-03-18T00:19:05.282Z,6.90
2023-03-18T00:21:52.382Z,6.80
2023-03-18T00:24:39.624Z,6.80
2023-03-18T00:27:28.495Z,6.80
2023-03-18T00:30:16.025Z,6.80
2023-03-18T00:33:03.159Z,6.60
2023-03-18T00:35:50.689Z,6.60
2023-03-18T00:38:37.739Z,6.60
2023-03-18T00:41:26.742Z,6.50
2023-03-18T00:44:15.636Z,6.40
2023-03-18T00:47:02.654Z,6.40
2023-03-18T00:49:49.785Z,6.20
2023-03-18T00:52:37.728Z,6.20
2023-03-18T00:55:24.647Z,6.00
2023-03-18T00:58:12.764Z,6.00
2023-03-18T01:01:01.406Z,5.80
2023-03-18T01:03:49.620Z,5.70
2023-03-18T01:06:38.507Z,5.60
2023-03-18T01:09:25.784Z,5.60
2023-03-18T01:12:13.850Z,5.60
2023-03-18T01:15:00.847Z,5.50
2023-03-18T01:17:50.987Z,5.40
2023-03-18T01:20:38.388Z,5.30
2023-03-18T01:23:25.567Z,5.30
2023-03-18T01:26:12.757Z,5.30
2023-03-18T01:28:59.864Z,5.20
2023-03-18T01:31:47.253Z,5.20
2023-03-18T01:34:35.637Z,5.00
2023-03-18T01:40:13.485Z,4.90
2023-03-18T01:43:13.394Z,4.80
2023-03-18T01:46:24.004Z,4.70
2023-03-18T01:49:14.901Z,4.70
2023-03-18T01:52:06.853Z,4.70
2023-03-18T01:54:59.827Z,4.60
2023-03-18T01:57:48.040Z,4.50
2023-03-18T02:00:36.224Z,4.50
2023-03-18T02:03:23.446Z,4.40
2023-03-18T02:06:10.530Z,4.40
2023-03-18T02:09:00.451Z,4.30
2023-03-18T02:11:50.005Z,4.40
2023-03-18T02:14:37.244Z,4.30
2023-03-18T02:17:28.028Z,4.30
2023-03-18T02:20:27.805Z,4.30
2023-03-18T02:23:25.703Z,4.30
2023-03-18T02:26:22.923Z,4.20
2023-03-18T02:29:14.801Z,4.20
2023-03-18T02:32:04.318Z,4.20
2023-03-18T02:34:51.823Z,4.20
2023-03-18T02:37:38.832Z,4.20
2023-03-18T02:40:29.199Z,4.10
2023-03-18T02:43:20.565Z,4.10
2023-03-18T02:46:32.311Z,4.10
2023-03-18T02:49:20.168Z,4.10
2023-03-18T02:52:07.630Z,4.10
2023-03-18T02:54:58.450Z,4.00
2023-03-18T02:57:45.720Z,4.00
2023-03-18T03:00:32.957Z,4.00
2023-03-18T03:03:21.595Z,3.90
2023-03-18T03:06:09.797Z,3.90
2023-03-18T03:08:57.386Z,3.80
2023-03-18T03:11:46.263Z,3.70
2023-03-18T03:14:33.609Z,3.70
2023-03-18T03:17:21.029Z,3.70
2023-03-18T03:20:10.909Z,3.70
2023-03-18T03:22:58.010Z,3.80
2023-03-18T03:25:46.040Z,3.80
2023-03-18T03:28:33.624Z,3.80
2023-03-18T03:31:20.492Z,3.80
2023-03-18T03:34:08.523Z,3.90
2023-03-18T03:36:56.999Z,3.90
2023-03-18T03:39:44.632Z,3.80
2023-03-18T03:42:31.409Z,4.00
2023-03-18T03:45:20.220Z,3.80
2023-03-18T03:48:07.693Z,3.80
2023-03-18T03:50:54.311Z,3.70
2023-03-18T03:53:43.958Z,3.90
2023-03-18T03:56:31.649Z,3.70
2023-03-18T03:59:18.799Z,3.80
2023-03-18T04:02:05.911Z,3.70
2023-03-18T04:04:53.022Z,3.70
2023-03-18T04:07:41.237Z,3.70
2023-03-18T04:10:29.478Z,3.70
2023-03-18T04:13:17.016Z,4.20
2023-03-18T04:16:04.246Z,3.70
2023-03-18T04:18:51.443Z,3.80
2023-03-18T04:21:38.859Z,3.50
2023-03-18T04:24:26.245Z,3.40
2023-03-18T04:27:14.711Z,3.40
2023-03-18T04:30:01.933Z,3.30
2023-03-18T04:32:48.855Z,3.20
2023-03-18T04:35:35.967Z,3.20
2023-03-18T04:38:22.866Z,3.20
2023-03-18T04:41:09.940Z,3.20
2023-03-18T04:43:58.937Z,3.20
2023-03-18T04:46:46.329Z,3.10
2023-03-18T04:49:33.440Z,3.10
2023-03-18T04:52:20.347Z,3.00
2023-03-18T04:55:09.512Z,3.00
2023-03-18T04:57:56.810Z,2.90
2023-03-18T05:00:45.809Z,2.90
2023-03-18T05:03:32.832Z,2.80
2023-03-18T05:06:24.873Z,2.80
2023-03-18T05:09:12.932Z,2.80
2023-03-18T05:11:59.967Z,2.70
2023-03-18T05:14:47.350Z,2.50
2023-03-18T05:17:35.764Z,2.50
2023-03-18T05:20:23.566Z,2.40
2023-03-18T05:23:11.843Z,2.30
2023-03-18T05:25:58.936Z,2.30
2023-03-18T05:28:45.857Z,2.20
2023-03-18T05:31:32.695Z,2.20
2023-03-18T05:34:21.636Z,2.20
2023-03-18T05:37:10.227Z,2.20
2023-03-18T05:40:02.046Z,2.20
2023-03-18T05:42:56.126Z,2.30
2023-03-18T05:45:44.190Z,2.10
2023-03-18T05:48:31.772Z,2.10
2023-03-18T05:51:20.751Z,2.00
2023-03-18T05:54:07.600Z,2.00
2023-03-18T05:56:58.227Z,2.00
2023-03-18T05:59:48.221Z,1.90
2023-03-18T06:02:35.263Z,1.80
2023-03-18T06:05:23.101Z,1.70
2023-03-18T06:08:11.701Z,1.80
2023-03-18T06:10:58.430Z,1.70
2023-03-18T06:13:46.162Z,1.80
2023-03-18T06:16:34.033Z,1.80
2023-03-18T06:19:21.972Z,1.80
2023-03-18T06:22:11.468Z,1.80
2023-03-18T06:25:04.206Z,1.80
2023-03-18T06:27:52.263Z,1.80
2023-03-18T06:30:41.905Z,2.10
2023-03-18T06:33:30.005Z,2.00
2023-03-18T06:36:18.065Z,2.10
2023-03-18T06:39:09.564Z,2.20
2023-03-18T06:41:57.861Z,2.30
2023-03-18T06:44:50.603Z,2.20
2023-03-18T06:47:37.725Z,2.30
2023-03-18T06:50:25.135Z,2.50
2023-03-18T06:53:12.773Z,2.70
2023-03-18T06:56:00.216Z,2.90
2023-03-18T06:58:48.934Z,3.10
2023-03-18T07:01:36.315Z,3.40
2023-03-18T07:04:23.853Z,3.80
2023-03-18T07:07:11.830Z,4.80
2023-03-18T07:09:59.201Z,5.60
2023-03-18T07:12:47.991Z,6.40
2023-03-18T07:15:39.572Z,7.20
2023-03-18T07:18:26.726Z,7.30
2023-03-18T07:21:13.820Z,8.10
2023-03-18T07:24:00.794Z,8.00
2023-03-18T07:26:50.239Z,9.10
2023-03-18T07:29:38.630Z,8.70
2023-03-18T07:32:26.998Z,8.00
2023-03-18T07:35:15.191Z,8.20
2023-03-18T07:38:02.500Z,8.20
2023-03-18T07:40:49.525Z,7.20
2023-03-18T07:43:38.651Z,6.80
2023-03-18T07:46:26.017Z,7.00
2023-03-18T07:49:14.390Z,8.50
2023-03-18T07:52:02.145Z,9.70
2023-03-18T07:54:49.365Z,11.20
2023-03-18T07:57:36.737Z,12.70
2023-03-18T08:00:25.694Z,13.60
2023-03-18T08:03:14.136Z,14.70
2023-03-18T08:06:02.798Z,13.50
2023-03-18T08:08:50.361Z,12.30
2023-03-18T08:11:38.224Z,14.10
2023-03-18T08:14:25.628Z,13.60
2023-03-18T08:17:13.108Z,14.30
2023-03-18T08:20:00.202Z,15.80
2023-03-18T08:22:48.609Z,15.30
2023-03-18T08:25:35.779Z,16.60
2023-03-18T08:28:22.745Z,17.60
2023-03-18T08:31:09.961Z,16.60
2023-03-18T08:33:59.544Z,15.60
2023-03-18T08:36:46.517Z,15.60
2023-03-18T08:39:34.889Z,17.10
2023-03-18T08:42:22.165Z,17.20
2023-03-18T08:45:10.186Z,17.10
2023-03-18T08:48:00.356Z,18.10
2023-03-18T08:50:47.017Z,19.50
2023-03-18T08:53:34.129Z,20.30
2023-03-18T08:56:22.260Z,19.90
2023-03-18T08:59:09.484Z,19.30
2023-03-18T09:01:59.339Z,18.70
2023-03-18T09:04:48.281Z,18.30
2023-03-18T09:07:35.312Z,18.20
2023-03-18T09:10:22.252Z,18.50
2023-03-18T09:13:10.720Z,19.00
2023-03-18T09:15:58.192Z,19.00
2023-03-18T09:18:46.505Z,19.60
2023-03-18T09:21:36.112Z,20.10
2023-03-18T09:24:22.908Z,17.90
2023-03-18T09:27:12.896Z,16.90
2023-03-18T09:30:01.470Z,17.50
2023-03-18T09:32:49.021Z,16.40
2023-03-18T09:35:37.934Z,16.20
2023-03-18T09:38:24.880Z,15.90
2023-03-18T09:41:25.046Z,16.00
2023-03-18T09:44:19.886Z,16.80
2023-03-18T09:47:23.178Z,18.40
2023-03-18T09:50:21.170Z,17.10
2023-03-18T09:53:18.175Z,16.40
2023-03-18T09:56:06.249Z,16.80
2023-03-18T09:58:59.890Z,17.80
2023-03-18T10:01:50.678Z,18.00
2023-03-18T10:04:44.762Z,19.80
2023-03-18T10:07:36.725Z,19.70
2023-03-18T10:10:29.338Z,19.70
2023-03-18T10:13:20.514Z,19.20
2023-03-18T10:16:15.463Z,18.90
2023-03-18T10:19:05.909Z,18.50
2023-03-18T10:22:09.612Z,18.70
2023-03-18T10:25:04.788Z,18.30
2023-03-18T10:28:13.685Z,18.40
2023-03-18T10:31:10.871Z,19.40
2023-03-18T10:34:02.350Z,19.60
2023-03-18T10:36:52.202Z,19.70
2023-03-18T10:39:41.769Z,19.80
2023-03-18T10:42:32.250Z,18.90
2023-03-18T10:45:24.150Z,17.80
2023-03-18T10:48:16.853Z,18.60
2023-03-18T10:51:12.531Z,18.60
2023-03-18T10:54:08.537Z,19.10
2023-03-18T10:56:56.683Z,20.70
2023-03-18T10:59:45.436Z,20.30
2023-03-18T11:02:36.256Z,18.90
2023-03-18T11:05:26.066Z,19.50
2023-03-18T11:08:34.399Z,19.30
2023-03-18T11:11:30.321Z,19.00
2023-03-18T11:14:22.990Z,21.00
2023-03-18T11:17:27.384Z,22.30
2023-03-18T11:20:24.690Z,20.20
2023-03-18T11:23:18.315Z,20.40
2023-03-18T11:26:09.948Z,18.80
2023-03-18T11:28:58.793Z,18.80
2023-03-18T11:31:58.307Z,18.70
2023-03-18T11:34:55.830Z,19.40
2023-03-18T11:37:42.964Z,19.40
2023-03-18T11:40:32.425Z,18.10
2023-03-18T11:43:21.222Z,19.00
2023-03-18T11:46:10.567Z,19.90
2023-03-18T11:48:59.498Z,20.20
2023-03-18T11:51:53.895Z,20.40
2023-03-18T11:54:56.116Z,19.40
2023-03-18T11:57:58.474Z,19.50
2023-03-18T12:00:53.883Z,18.90
2023-03-18T12:04:06.031Z,19.00
2023-03-18T12:07:08.921Z,19.40
2023-03-18T12:10:05.554Z,18.70
2023-03-18T12:13:20.950Z,18.40
2023-03-18T12:16:18.826Z,18.00
2023-03-18T12:19:32.215Z,17.70
2023-03-18T12:22:40.671Z,17.60
2023-03-18T12:25:52.381Z,18.20
2023-03-18T12:28:51.960Z,19.00
2023-03-18T12:32:00.055Z,18.80
2023-03-18T12:35:02.635Z,19.80
2023-03-18T12:38:14.613Z,20.50
2023-03-18T12:41:10.568Z,20.70
2023-03-18T12:44:13.629Z,21.20
2023-03-18T12:47:06.737Z,21.40
2023-03-18T12:50:01.103Z,21.30
2023-03-18T12:52:52.190Z,21.20
2023-03-18T12:55:43.197Z,21.20
2023-03-18T12:58:37.911Z,21.30
2023-03-18T13:01:31.585Z,21.20
2023-03-18T13:04:22.869Z,20.80
2023-03-18T13:07:17.362Z,20.50
2023-03-18T13:10:15.079Z,20.60
2023-03-18T13:13:07.820Z,20.70
2023-03-18T13:16:01.412Z,20.60
2023-03-18T13:18:52.311Z,20.80
2023-03-18T13:21:44.626Z,20.10
2023-03-18T13:25:02.505Z,19.90
2023-03-18T13:28:06.055Z,19.50
2023-03-18T13:31:06.609Z,19.00
2023-03-18T13:34:26.608Z,18.80
2023-03-18T13:37:43.175Z,18.50
2023-03-18T13:40:44.081Z,18.40
2023-03-18T13:43:39.563Z,18.30
2023-03-18T13:46:30.988Z,18.20
2023-03-18T13:49:23.111Z,18.10
2023-03-18T13:52:28.056Z,18.00
2023-03-18T13:55:26.801Z,17.90
2023-03-18T13:58:24.092Z,18.00
2023-03-18T14:01:29.295Z,17.90
2023-03-18T14:04:34.123Z,18.00
2023-03-18T14:07:22.757Z,17.80
2023-03-18T14:10:20.366Z,17.60
2023-03-18T14:13:29.415Z,18.00
2023-03-18T14:16:20.594Z,17.80
2023-03-18T14:19:15.318Z,17.60
2023-03-18T14:22:14.942Z,17.60
2023-03-18T14:25:27.867Z,17.10
2023-03-18T14:28:26.589Z,17.10
2023-03-18T14:31:58.099Z,17.00
2023-03-18T14:34:56.452Z,17.30
2023-03-18T14:38:02.043Z,17.40
2023-03-18T14:40:51.658Z,17.40
2023-03-18T14:43:46.668Z,17.50
2023-03-18T14:46:42.173Z,17.60
2023-03-18T14:49:45.420Z,17.90
2023-03-18T14:52:35.626Z,18.00
2023-03-18T14:55:27.901Z,17.90
2023-03-18T14:58:19.292Z,17.80
2023-03-18T15:01:09.864Z,17.70
2023-03-18T15:03:59.762Z,17.50
2023-03-18T15:06:48.561Z,17.30
2023-03-18T15:09:38.237Z,17.20
2023-03-18T15:12:28.887Z,17.10
2023-03-18T15:15:17.857Z,17.10
2023-03-18T15:18:18.816Z,17.10
2023-03-18T15:21:10.635Z,16.70
2023-03-18T15:24:03.672Z,16.60
2023-03-18T15:26:58.913Z,16.50
2023-03-18T15:29:49.747Z,16.50
2023-03-18T15:32:45.722Z,16.10
2023-03-18T15:35:33.834Z,15.90
2023-03-18T15:38:22.002Z,15.90
2023-03-18T15:41:12.818Z,15.90
2023-03-18T15:44:00.922Z,15.90
2023-03-18T15:46:48.396Z,15.70
2023-03-18T15:49:44.112Z,15.60
2023-03-18T15:52:34.514Z,15.50
2023-03-18T15:55:29.320Z,15.40
2023-03-18T15:58:23.418Z,15.40
2023-03-18T16:01:16.592Z,15.40
2023-03-18T16:04:03.857Z,15.30
2023-03-18T16:06:52.489Z,15.20
2023-03-18T16:09:39.463Z,15.00
2023-03-18T16:12:27.793Z,14.90
2023-03-18T16:15:22.243Z,14.80
2023-03-18T16:18:10.394Z,14.70
2023-03-18T16:20:57.610Z,14.60
2023-03-18T16:23:44.919Z,14.50
2023-03-18T16:26:31.839Z,14.40
2023-03-18T16:29:23.358Z,14.20
2023-03-18T16:32:14.450Z,14.20
2023-03-18T16:35:01.763Z,14.10
2023-03-18T16:37:49.927Z,14.00
2023-03-18T16:40:37.338Z,13.90
2023-03-18T16:43:27.383Z,13.80
2023-03-18T16:46:15.595Z,13.80
2023-03-18T16:49:04.189Z,13.60
2023-03-18T16:51:51.769Z,13.40
2023-03-18T16:54:39.399Z,13.30
2023-03-18T16:57:26.705Z,13.20
2023-03-18T17:00:20.665Z,13.10
2023-03-18T17:03:10.719Z,13.00
2023-03-18T17:05:59.297Z,12.90
2023-03-18T17:08:46.190Z,12.80
2023-03-18T17:11:35.011Z,12.80
2023-03-18T17:14:33.913Z,12.70
2023-03-18T17:17:26.796Z,12.60
2023-03-18T17:20:17.824Z,12.50
2023-03-18T17:23:06.204Z,12.30
2023-03-18T17:25:55.805Z,12.10
2023-03-18T17:28:44.891Z,12.00
2023-03-18T17:31:31.837Z,11.90
2023-03-18T17:34:18.706Z,11.80
2023-03-18T17:37:06.172Z,11.60
2023-03-18T17:39:54.323Z,11.50
2023-03-18T17:42:41.448Z,11.30
2023-03-18T17:45:32.180Z,11.20
2023-03-18T17:48:21.951Z,11.10
2023-03-18T17:51:14.037Z,10.80
2023-03-18T17:54:02.400Z,10.70
2023-03-18T17:56:51.503Z,10.70
2023-03-18T17:59:38.275Z,10.60
2023-03-18T18:02:25.694Z,10.50
2023-03-18T18:05:28.228Z,10.40
2023-03-18T18:08:17.866Z,10.30
2023-03-18T18:11:16.435Z,10.30
2023-03-18T18:14:17.828Z,10.10
2023-03-18T18:17:12.667Z,9.90
2023-03-18T18:20:00.055Z,9.70
2023-03-18T18:22:49.709Z,9.80
2023-03-18T18:25:36.834Z,9.70
2023-03-18T18:28:27.170Z,9.70
2023-03-18T18:31:17.629Z,9.80
2023-03-18T18:34:04.695Z,9.80
2023-03-18T18:36:52.211Z,9.70
2023-03-18T18:39:39.574Z,9.50
2023-03-18T18:42:29.194Z,9.50
2023-03-18T18:45:19.293Z,9.50
2023-03-18T18:48:14.207Z,9.50
2023-03-18T18:51:02.080Z,9.40
2023-03-18T18:53:50.466Z,9.20
2023-03-18T18:56:38.727Z,9.10
2023-03-18T18:59:31.928Z,8.70
2023-03-18T19:02:30.234Z,8.70
2023-03-18T19:05:19.067Z,8.80
2023-03-18T19:08:06.860Z,8.80
2023-03-18T19:10:55.740Z,8.90
2023-03-18T19:13:43.300Z,8.90
2023-03-18T19:16:33.118Z,8.80
2023-03-18T19:19:22.910Z,8.80
2023-03-18T19:22:14.498Z,8.90
2023-03-18T19:25:01.707Z,8.70
2023-03-18T19:27:48.866Z,8.80
2023-03-18T19:30:36.077Z,8.80
2023-03-18T19:33:24.005Z,8.80
2023-03-18T19:36:23.246Z,8.90
2023-03-18T19:39:16.699Z,8.40
2023-03-18T19:42:06.401Z,8.60
2023-03-18T19:44:54.005Z,8.70
2023-03-18T19:47:42.061Z,8.70
2023-03-18T19:50:29.206Z,8.80
2023-03-18T19:53:18.068Z,8.60
2023-03-18T19:56:09.356Z,8.70
2023-03-18T19:58:58.918Z,8.70
2023-03-18T20:01:46.453Z,8.70
2023-03-18T20:04:33.388Z,8.80
2023-03-18T20:07:23.150Z,8.80
2023-03-18T20:10:12.066Z,8.80
2023-03-18T20:13:00.530Z,8.80
2023-03-18T20:15:48.210Z,8.70
2023-03-18T20:18:35.106Z,8.70
2023-03-18T20:21:26.751Z,8.60
2023-03-18T20:24:17.023Z,8.50
2023-03-18T20:27:05.585Z,8.50
2023-03-18T20:29:53.986Z,8.40
2023-03-18T20:32:44.074Z,8.40
2023-03-18T20:35:33.369Z,8.40
2023-03-18T20:38:27.918Z,8.40
2023-03-18T20:41:17.381Z,8.40
2023-03-18T20:44:04.769Z,8.50
2023-03-18T20:46:53.920Z,8.50
2023-03-18T20:49:44.113Z,8.50
2023-03-18T20:52:32.194Z,8.50
2023-03-18T20:55:25.434Z,8.50
2023-03-18T20:58:17.252Z,8.40
2023-03-18T21:01:04.946Z,8.40
2023-03-18T21:03:54.059Z,8.30
2023-03-18T21:06:42.136Z,8.20
2023-03-18T21:09:29.239Z,8.20
2023-03-18T21:12:18.077Z,8.10
2023-03-18T21:15:05.488Z,8.00
2023-03-18T21:17:52.648Z,8.00
2023-03-18T21:20:45.057Z,8.00
2023-03-18T21:23:34.381Z,8.10
2023-03-18T21:26:21.848Z,8.10
2023-03-18T21:29:08.658Z,8.10
2023-03-18T21:31:55.939Z,8.10
2023-03-18T21:34:44.200Z,8.10
2023-03-18T21:37:32.358Z,8.10
2023-03-18T21:40:21.715Z,8.00
2023-03-18T21:43:28.312Z,8.00
2023-03-18T21:46:18.932Z,7.80
2023-03-18T21:49:06.029Z,7.90
2023-03-18T21:51:52.730Z,7.90
2023-03-18T21:59:01.493Z,7.60
2023-03-18T22:01:48.377Z,7.70
2023-03-18T22:04:35.412Z,7.70
2023-03-18T22:07:23.303Z,7.60
2023-03-18T22:10:19.804Z,7.70
2023-03-18T22:13:18.088Z,7.50
2023-03-18T22:16:07.533Z,7.20
2023-03-18T22:18:54.390Z,7.30
2023-03-18T22:21:41.666Z,7.40
2023-03-18T22:24:31.404Z,7.40
2023-03-18T22:27:23.675Z,7.50
2023-03-18T22:30:12.799Z,7.60
2023-03-18T22:33:02.787Z,7.30
2023-03-18T22:35:49.788Z,7.20
2023-03-18T22:38:36.971Z,7.30
2023-03-18T22:41:29.375Z,7.20
2023-03-18T22:44:23.892Z,7.20
2023-03-18T22:47:15.282Z,7.20
2023-03-18T22:50:03.876Z,7.30
2023-03-18T22:52:52.426Z,7.10
2023-03-18T22:55:41.968Z,7.10
2023-03-18T22:58:29.641Z,7.20
2023-03-18T23:01:18.675Z,7.20
2023-03-18T23:04:06.037Z,7.10
2023-03-18T23:06:54.649Z,7.00
2023-03-18T23:09:56.096Z,6.90
2023-03-18T23:12:43.940Z,6.90
2023-03-18T23:15:31.146Z,6.90
2023-03-18T23:18:19.620Z,6.80
2023-03-18T23:21:06.927Z,6.80
2023-03-18T23:23:56.974Z,6.80
2023-03-18T23:26:44.313Z,6.80
2023-03-18T23:29:31.624Z,6.80
2023-03-18T23:32:19.800Z,6.60
2023-03-18T23:35:09.570Z,6.60
2023-03-18T23:37:56.280Z,6.70
2023-03-18T23:40:44.485Z,6.60
2023-03-18T23:43:31.413Z,6.70
2023-03-18T23:46:18.314Z,6.70
2023-03-18T23:49:07.991Z,6.60
2023-03-18T23:51:55.087Z,6.60
2023-03-18T23:54:42.410Z,6.60
2023-03-18T23:57:31.010Z,6.50
